sensor_id;sensor_type;location;lat;lon;timestamp;P1;durP1;ratioP1;P2;durP2;ratioP2
52029;SDS011;38043;53.224;6.580;2023-03-31T00:00:19;40.60;;;6.05;;
52029;SDS011;38043;53.224;6.580;2023-03-31T00:02:45;38.38;;;7.40;;
52029;SDS011;38043;53.224;6.580;2023-03-31T00:05:10;43.10;;;6.35;;
52029;SDS011;38043;53.224;6.580;2023-03-31T00:07:42;36.08;;;7.38;;
52029;SDS011;38043;53.224;6.580;2023-03-31T00:10:09;48.15;;;8.45;;
52029;SDS011;38043;53.224;6.580;2023-03-31T00:12:35;44.88;;;8.07;;
52029;SDS011;38043;53.224;6.580;2023-03-31T00:15:01;37.80;;;6.32;;
52029;SDS011;38043;53.224;6.580;2023-03-31T00:17:26;33.63;;;6.60;;
52029;SDS011;38043;53.224;6.580;2023-03-31T00:19:53;49.20;;;6.18;;
52029;SDS011;38043;53.224;6.580;2023-03-31T00:22:24;42.20;;;6.63;;
52029;SDS011;38043;53.224;6.580;2023-03-31T00:24:51;37.80;;;5.20;;
52029;SDS011;38043;53.224;6.580;2023-03-31T00:27:17;39.78;;;6.28;;
52029;SDS011;38043;53.224;6.580;2023-03-31T00:29:42;44.97;;;7.00;;
52029;SDS011;38043;53.224;6.580;2023-03-31T00:32:09;41.58;;;6.13;;
52029;SDS011;38043;53.224;6.580;2023-03-31T00:34:35;34.95;;;6.95;;
52029;SDS011;38043;53.224;6.580;2023-03-31T00:37:01;38.40;;;5.88;;
52029;SDS011;38043;53.224;6.580;2023-03-31T00:39:28;36.97;;;6.30;;
52029;SDS011;38043;53.224;6.580;2023-03-31T00:41:58;42.45;;;6.38;;
52029;SDS011;38043;53.224;6.580;2023-03-31T00:46:54;30.52;;;5.85;;
52029;SDS011;38043;53.224;6.580;2023-03-31T00:49:44;32.88;;;6.18;;
52029;SDS011;38043;53.224;6.580;2023-03-31T00:52:16;41.70;;;5.78;;
52029;SDS011;38043;53.224;6.580;2023-03-31T00:54:48;47.38;;;7.28;;
52029;SDS011;38043;53.224;6.580;2023-03-31T00:57:20;39.83;;;5.65;;
52029;SDS011;38043;53.224;6.580;2023-03-31T00:59:51;48.55;;;7.70;;
52029;SDS011;38043;53.224;6.580;2023-03-31T01:02:21;38.00;;;7.05;;
52029;SDS011;38043;53.224;6.580;2023-03-31T01:07:24;33.08;;;6.00;;
52029;SDS011;38043;53.224;6.580;2023-03-31T01:10:02;35.45;;;6.22;;
52029;SDS011;38043;53.224;6.580;2023-03-31T01:12:29;33.80;;;5.68;;
52029;SDS011;38043;53.224;6.580;2023-03-31T01:14:57;32.13;;;5.50;;
52029;SDS011;38043;53.224;6.580;2023-03-31T01:17:24;40.42;;;5.70;;
52029;SDS011;38043;53.224;6.580;2023-03-31T01:20:09;28.58;;;6.03;;
52029;SDS011;38043;53.224;6.580;2023-03-31T01:37:03;31.38;;;6.40;;
52029;SDS011;38043;53.224;6.580;2023-03-31T01:42:26;34.08;;;5.15;;
52029;SDS011;38043;53.224;6.580;2023-03-31T01:45:18;31.00;;;6.40;;
52029;SDS011;38043;53.224;6.580;2023-03-31T01:50:44;31.90;;;5.43;;
52029;SDS011;38043;53.224;6.580;2023-03-31T01:53:47;32.90;;;5.30;;
52029;SDS011;38043;53.224;6.580;2023-03-31T01:56:33;24.00;;;5.35;;
52029;SDS011;38043;53.224;6.580;2023-03-31T01:59:09;32.65;;;5.97;;
52029;SDS011;38043;53.224;6.580;2023-03-31T02:04:20;30.30;;;5.50;;
52029;SDS011;38043;53.224;6.580;2023-03-31T02:07:33;29.08;;;6.47;;
52029;SDS011;38043;53.224;6.580;2023-03-31T02:09:44;43.47;;;5.80;;
52029;SDS011;38043;53.224;6.580;2023-03-31T02:12:15;29.25;;;5.60;;
52029;SDS011;38043;53.224;6.580;2023-03-31T02:17:12;31.30;;;4.93;;
52029;SDS011;38043;53.224;6.580;2023-03-31T02:19:42;24.90;;;4.68;;
52029;SDS011;38043;53.224;6.580;2023-03-31T02:22:12;32.55;;;5.05;;
52029;SDS011;38043;53.224;6.580;2023-03-31T02:29:45;29.67;;;5.43;;
52029;SDS011;38043;53.224;6.580;2023-03-31T02:34:40;33.95;;;6.22;;
52029;SDS011;38043;53.224;6.580;2023-03-31T02:37:06;34.17;;;5.13;;
52029;SDS011;38043;53.224;6.580;2023-03-31T02:39:33;34.15;;;6.38;;
52029;SDS011;38043;53.224;6.580;2023-03-31T02:42:01;32.90;;;6.57;;
52029;SDS011;38043;53.224;6.580;2023-03-31T02:44:37;32.55;;;6.00;;
52029;SDS011;38043;53.224;6.580;2023-03-31T02:47:08;32.88;;;5.50;;
52029;SDS011;38043;53.224;6.580;2023-03-31T02:49:37;32.83;;;5.40;;
52029;SDS011;38043;53.224;6.580;2023-03-31T02:58:02;27.17;;;4.47;;
52029;SDS011;38043;53.224;6.580;2023-03-31T03:00:43;28.65;;;5.20;;
52029;SDS011;38043;53.224;6.580;2023-03-31T03:17:05;28.05;;;5.45;;
52029;SDS011;38043;53.224;6.580;2023-03-31T03:19:35;26.77;;;4.97;;
52029;SDS011;38043;53.224;6.580;2023-03-31T03:22:01;31.90;;;5.40;;
52029;SDS011;38043;53.224;6.580;2023-03-31T03:24:27;21.20;;;4.22;;
52029;SDS011;38043;53.224;6.580;2023-03-31T03:26:54;20.42;;;4.60;;
52029;SDS011;38043;53.224;6.580;2023-03-31T03:29:20;25.40;;;4.90;;
52029;SDS011;38043;53.224;6.580;2023-03-31T03:31:46;24.55;;;4.38;;
52029;SDS011;38043;53.224;6.580;2023-03-31T03:34:12;23.92;;;4.53;;
52029;SDS011;38043;53.224;6.580;2023-03-31T03:36:38;23.30;;;4.60;;
52029;SDS011;38043;53.224;6.580;2023-03-31T03:39:04;27.05;;;4.78;;
52029;SDS011;38043;53.224;6.580;2023-03-31T03:41:31;32.95;;;5.65;;
52029;SDS011;38043;53.224;6.580;2023-03-31T03:43:58;34.47;;;5.97;;
52029;SDS011;38043;53.224;6.580;2023-03-31T03:46:24;24.30;;;4.78;;
52029;SDS011;38043;53.224;6.580;2023-03-31T03:48:50;22.25;;;5.22;;
52029;SDS011;38043;53.224;6.580;2023-03-31T03:51:15;20.77;;;4.38;;
52029;SDS011;38043;53.224;6.580;2023-03-31T03:53:41;23.83;;;4.68;;
52029;SDS011;38043;53.224;6.580;2023-03-31T03:56:07;22.85;;;4.20;;
52029;SDS011;38043;53.224;6.580;2023-03-31T03:58:33;21.95;;;4.65;;
52029;SDS011;38043;53.224;6.580;2023-03-31T04:00:58;24.15;;;4.57;;
52029;SDS011;38043;53.224;6.580;2023-03-31T04:03:24;20.70;;;4.20;;
52029;SDS011;38043;53.224;6.580;2023-03-31T04:05:50;23.40;;;4.25;;
52029;SDS011;38043;53.224;6.580;2023-03-31T04:08:16;22.80;;;5.93;;
52029;SDS011;38043;53.224;6.580;2023-03-31T04:10:46;16.02;;;3.80;;
52029;SDS011;38043;53.224;6.580;2023-03-31T04:13:14;25.15;;;5.32;;
52029;SDS011;38043;53.224;6.580;2023-03-31T04:15:40;20.35;;;4.70;;
52029;SDS011;38043;53.224;6.580;2023-03-31T04:18:06;19.88;;;5.10;;
52029;SDS011;38043;53.224;6.580;2023-03-31T04:20:35;14.55;;;4.88;;
52029;SDS011;38043;53.224;6.580;2023-03-31T04:23:02;16.42;;;5.00;;
52029;SDS011;38043;53.224;6.580;2023-03-31T04:25:30;15.75;;;4.65;;
52029;SDS011;38043;53.224;6.580;2023-03-31T04:27:55;20.95;;;5.53;;
52029;SDS011;38043;53.224;6.580;2023-03-31T04:30:22;22.13;;;5.57;;
52029;SDS011;38043;53.224;6.580;2023-03-31T04:33:07;18.70;;;6.00;;
52029;SDS011;38043;53.224;6.580;2023-03-31T04:35:32;21.67;;;6.10;;
52029;SDS011;38043;53.224;6.580;2023-03-31T04:38:21;18.23;;;5.70;;
52029;SDS011;38043;53.224;6.580;2023-03-31T04:40:48;25.15;;;7.07;;
52029;SDS011;38043;53.224;6.580;2023-03-31T04:43:16;18.10;;;6.32;;
52029;SDS011;38043;53.224;6.580;2023-03-31T04:45:43;19.13;;;6.47;;
52029;SDS011;38043;53.224;6.580;2023-03-31T04:48:09;22.83;;;6.93;;
52029;SDS011;38043;53.224;6.580;2023-03-31T04:50:35;26.48;;;7.15;;
52029;SDS011;38043;53.224;6.580;2023-03-31T04:53:01;15.10;;;6.82;;
52029;SDS011;38043;53.224;6.580;2023-03-31T04:55:27;22.50;;;7.38;;
52029;SDS011;38043;53.224;6.580;2023-03-31T04:57:53;22.58;;;7.97;;
52029;SDS011;38043;53.224;6.580;2023-03-31T05:00:19;22.67;;;7.70;;
52029;SDS011;38043;53.224;6.580;2023-03-31T05:02:45;22.63;;;8.48;;
52029;SDS011;38043;53.224;6.580;2023-03-31T05:05:10;21.15;;;8.45;;
52029;SDS011;38043;53.224;6.580;2023-03-31T05:07:37;19.48;;;8.35;;
52029;SDS011;38043;53.224;6.580;2023-03-31T05:10:03;21.55;;;8.80;;
52029;SDS011;38043;53.224;6.580;2023-03-31T05:12:33;21.05;;;8.43;;
52029;SDS011;38043;53.224;6.580;2023-03-31T05:14:59;19.63;;;8.70;;
52029;SDS011;38043;53.224;6.580;2023-03-31T05:17:25;24.92;;;9.20;;
52029;SDS011;38043;53.224;6.580;2023-03-31T05:19:51;29.27;;;9.95;;
52029;SDS011;38043;53.224;6.580;2023-03-31T05:22:17;24.73;;;9.05;;
52029;SDS011;38043;53.224;6.580;2023-03-31T05:24:44;23.03;;;9.43;;
52029;SDS011;38043;53.224;6.580;2023-03-31T05:27:11;23.40;;;9.38;;
52029;SDS011;38043;53.224;6.580;2023-03-31T05:29:37;25.13;;;9.55;;
52029;SDS011;38043;53.224;6.580;2023-03-31T05:32:02;22.33;;;9.13;;
52029;SDS011;38043;53.224;6.580;2023-03-31T05:34:28;27.48;;;9.98;;
52029;SDS011;38043;53.224;6.580;2023-03-31T05:36:54;20.40;;;9.27;;
52029;SDS011;38043;53.224;6.580;2023-03-31T05:39:20;31.02;;;9.52;;
52029;SDS011;38043;53.224;6.580;2023-03-31T05:41:46;26.00;;;9.23;;
52029;SDS011;38043;53.224;6.580;2023-03-31T05:44:11;21.65;;;8.52;;
52029;SDS011;38043;53.224;6.580;2023-03-31T05:46:37;28.88;;;8.60;;
52029;SDS011;38043;53.224;6.580;2023-03-31T05:49:02;18.02;;;7.72;;
52029;SDS011;38043;53.224;6.580;2023-03-31T05:51:28;21.80;;;7.95;;
52029;SDS011;38043;53.224;6.580;2023-03-31T05:53:54;24.35;;;7.55;;
52029;SDS011;38043;53.224;6.580;2023-03-31T05:56:20;25.63;;;8.35;;
52029;SDS011;38043;53.224;6.580;2023-03-31T05:58:46;22.48;;;7.40;;
52029;SDS011;38043;53.224;6.580;2023-03-31T06:01:13;23.63;;;7.82;;
52029;SDS011;38043;53.224;6.580;2023-03-31T06:03:43;18.88;;;6.80;;
52029;SDS011;38043;53.224;6.580;2023-03-31T06:06:10;23.42;;;7.35;;
52029;SDS011;38043;53.224;6.580;2023-03-31T06:08:40;23.02;;;7.00;;
52029;SDS011;38043;53.224;6.580;2023-03-31T06:11:08;20.35;;;6.13;;
52029;SDS011;38043;53.224;6.580;2023-03-31T06:13:36;18.15;;;6.10;;
52029;SDS011;38043;53.224;6.580;2023-03-31T06:16:03;21.02;;;5.40;;
52029;SDS011;38043;53.224;6.580;2023-03-31T06:18:30;21.98;;;6.47;;
52029;SDS011;38043;53.224;6.580;2023-03-31T06:20:57;22.10;;;6.25;;
52029;SDS011;38043;53.224;6.580;2023-03-31T06:23:23;21.77;;;6.68;;
52029;SDS011;38043;53.224;6.580;2023-03-31T06:25:49;20.65;;;6.40;;
52029;SDS011;38043;53.224;6.580;2023-03-31T06:28:16;18.92;;;6.25;;
52029;SDS011;38043;53.224;6.580;2023-03-31T06:30:42;16.40;;;6.72;;
52029;SDS011;38043;53.224;6.580;2023-03-31T06:33:07;17.10;;;5.38;;
52029;SDS011;38043;53.224;6.580;2023-03-31T06:35:38;16.77;;;6.32;;
52029;SDS011;38043;53.224;6.580;2023-03-31T06:38:05;14.00;;;5.72;;
52029;SDS011;38043;53.224;6.580;2023-03-31T06:40:31;19.33;;;6.50;;
52029;SDS011;38043;53.224;6.580;2023-03-31T06:42:57;21.58;;;6.78;;
52029;SDS011;38043;53.224;6.580;2023-03-31T06:45:23;20.95;;;6.88;;
52029;SDS011;38043;53.224;6.580;2023-03-31T06:47:49;21.95;;;6.57;;
52029;SDS011;38043;53.224;6.580;2023-03-31T06:50:14;16.90;;;5.93;;
52029;SDS011;38043;53.224;6.580;2023-03-31T06:52:40;14.52;;;5.15;;
52029;SDS011;38043;53.224;6.580;2023-03-31T06:55:06;16.05;;;6.35;;
52029;SDS011;38043;53.224;6.580;2023-03-31T06:57:33;12.52;;;5.82;;
52029;SDS011;38043;53.224;6.580;2023-03-31T06:59:59;13.93;;;5.85;;
52029;SDS011;38043;53.224;6.580;2023-03-31T07:02:25;17.65;;;6.10;;
52029;SDS011;38043;53.224;6.580;2023-03-31T07:04:50;17.30;;;5.97;;
52029;SDS011;38043;53.224;6.580;2023-03-31T07:07:16;11.35;;;5.63;;
52029;SDS011;38043;53.224;6.580;2023-03-31T07:09:42;15.82;;;5.32;;
52029;SDS011;38043;53.224;6.580;2023-03-31T07:12:08;18.08;;;5.65;;
52029;SDS011;38043;53.224;6.580;2023-03-31T07:14:34;16.65;;;6.63;;
52029;SDS011;38043;53.224;6.580;2023-03-31T07:17:00;14.15;;;5.53;;
52029;SDS011;38043;53.224;6.580;2023-03-31T07:19:26;15.32;;;5.75;;
52029;SDS011;38043;53.224;6.580;2023-03-31T07:21:52;16.60;;;6.38;;
52029;SDS011;38043;53.224;6.580;2023-03-31T07:24:18;16.65;;;6.38;;
52029;SDS011;38043;53.224;6.580;2023-03-31T07:26:44;17.60;;;6.07;;
52029;SDS011;38043;53.224;6.580;2023-03-31T07:29:10;14.35;;;7.28;;
52029;SDS011;38043;53.224;6.580;2023-03-31T07:31:35;20.52;;;8.18;;
52029;SDS011;38043;53.224;6.580;2023-03-31T07:34:02;24.13;;;8.60;;
52029;SDS011;38043;53.224;6.580;2023-03-31T07:36:28;27.10;;;9.27;;
52029;SDS011;38043;53.224;6.580;2023-03-31T07:38:55;24.08;;;9.30;;
52029;SDS011;38043;53.224;6.580;2023-03-31T07:41:21;21.25;;;9.35;;
52029;SDS011;38043;53.224;6.580;2023-03-31T07:43:47;24.42;;;8.32;;
52029;SDS011;38043;53.224;6.580;2023-03-31T07:48:48;16.92;;;6.93;;
52029;SDS011;38043;53.224;6.580;2023-03-31T07:51:15;16.67;;;6.35;;
52029;SDS011;38043;53.224;6.580;2023-03-31T07:53:42;16.75;;;6.50;;
52029;SDS011;38043;53.224;6.580;2023-03-31T07:56:08;13.63;;;5.85;;
52029;SDS011;38043;53.224;6.580;2023-03-31T07:58:34;14.80;;;5.68;;
52029;SDS011;38043;53.224;6.580;2023-03-31T08:00:59;14.82;;;5.28;;
52029;SDS011;38043;53.224;6.580;2023-03-31T08:03:26;14.25;;;5.22;;
52029;SDS011;38043;53.224;6.580;2023-03-31T08:05:51;22.25;;;6.97;;
52029;SDS011;38043;53.224;6.580;2023-03-31T08:08:18;11.98;;;5.38;;
52029;SDS011;38043;53.224;6.580;2023-03-31T08:10:45;17.23;;;5.55;;
52029;SDS011;38043;53.224;6.580;2023-03-31T08:13:11;11.77;;;5.10;;
52029;SDS011;38043;53.224;6.580;2023-03-31T08:15:37;13.27;;;5.47;;
52029;SDS011;38043;53.224;6.580;2023-03-31T08:18:03;12.18;;;5.75;;
52029;SDS011;38043;53.224;6.580;2023-03-31T08:20:29;15.43;;;6.43;;
52029;SDS011;38043;53.224;6.580;2023-03-31T08:22:55;16.63;;;6.03;;
52029;SDS011;38043;53.224;6.580;2023-03-31T08:25:21;15.23;;;5.60;;
52029;SDS011;38043;53.224;6.580;2023-03-31T08:27:48;15.93;;;6.13;;
52029;SDS011;38043;53.224;6.580;2023-03-31T08:30:15;11.20;;;4.88;;
52029;SDS011;38043;53.224;6.580;2023-03-31T08:32:42;14.15;;;4.88;;
52029;SDS011;38043;53.224;6.580;2023-03-31T08:35:08;12.95;;;5.15;;
52029;SDS011;38043;53.224;6.580;2023-03-31T08:37:34;10.32;;;4.93;;
52029;SDS011;38043;53.224;6.580;2023-03-31T08:40:04;11.55;;;5.20;;
52029;SDS011;38043;53.224;6.580;2023-03-31T08:42:42;15.57;;;4.82;;
52029;SDS011;38043;53.224;6.580;2023-03-31T08:47:45;11.05;;;4.55;;
52029;SDS011;38043;53.224;6.580;2023-03-31T08:50:14;14.48;;;5.75;;
52029;SDS011;38043;53.224;6.580;2023-03-31T08:52:44;15.30;;;5.43;;
52029;SDS011;38043;53.224;6.580;2023-03-31T08:55:19;13.43;;;4.88;;
52029;SDS011;38043;53.224;6.580;2023-03-31T08:58:10;12.93;;;5.03;;
52029;SDS011;38043;53.224;6.580;2023-03-31T09:00:50;11.25;;;4.30;;
52029;SDS011;38043;53.224;6.580;2023-03-31T09:06:34;18.52;;;5.20;;
52029;SDS011;38043;53.224;6.580;2023-03-31T09:09:04;11.05;;;5.35;;
52029;SDS011;38043;53.224;6.580;2023-03-31T09:11:43;11.93;;;4.85;;
52029;SDS011;38043;53.224;6.580;2023-03-31T09:17:26;19.20;;;5.47;;
52029;SDS011;38043;53.224;6.580;2023-03-31T09:19:59;17.85;;;5.93;;
52029;SDS011;38043;53.224;6.580;2023-03-31T09:23:21;13.48;;;5.88;;
52029;SDS011;38043;53.224;6.580;2023-03-31T09:25:48;16.08;;;6.10;;
52029;SDS011;38043;53.224;6.580;2023-03-31T09:28:18;14.38;;;6.07;;
52029;SDS011;38043;53.224;6.580;2023-03-31T09:30:47;18.02;;;5.60;;
52029;SDS011;38043;53.224;6.580;2023-03-31T09:35:56;15.52;;;6.13;;
52029;SDS011;38043;53.224;6.580;2023-03-31T09:38:25;13.70;;;5.53;;
52029;SDS011;38043;53.224;6.580;2023-03-31T09:40:58;20.38;;;6.40;;
52029;SDS011;38043;53.224;6.580;2023-03-31T09:43:27;14.40;;;5.90;;
52029;SDS011;38043;53.224;6.580;2023-03-31T09:45:54;18.98;;;5.85;;
52029;SDS011;38043;53.224;6.580;2023-03-31T09:48:31;16.10;;;5.85;;
52029;SDS011;38043;53.224;6.580;2023-03-31T09:53:28;13.35;;;5.80;;
52029;SDS011;38043;53.224;6.580;2023-03-31T09:56:04;17.33;;;6.15;;
52029;SDS011;38043;53.224;6.580;2023-03-31T09:58:41;13.07;;;5.68;;
52029;SDS011;38043;53.224;6.580;2023-03-31T10:01:10;19.77;;;5.72;;
52029;SDS011;38043;53.224;6.580;2023-03-31T10:03:43;15.88;;;5.93;;
52029;SDS011;38043;53.224;6.580;2023-03-31T10:06:16;14.10;;;5.43;;
52029;SDS011;38043;53.224;6.580;2023-03-31T10:08:46;12.82;;;5.30;;
52029;SDS011;38043;53.224;6.580;2023-03-31T10:11:22;17.35;;;6.03;;
52029;SDS011;38043;53.224;6.580;2023-03-31T10:16:21;12.32;;;4.45;;
52029;SDS011;38043;53.224;6.580;2023-03-31T10:18:53;14.77;;;5.00;;
52029;SDS011;38043;53.224;6.580;2023-03-31T10:21:23;12.63;;;4.95;;
52029;SDS011;38043;53.224;6.580;2023-03-31T10:23:51;10.20;;;5.18;;
52029;SDS011;38043;53.224;6.580;2023-03-31T10:26:21;12.38;;;4.75;;
52029;SDS011;38043;53.224;6.580;2023-03-31T10:28:50;10.95;;;4.00;;
52029;SDS011;38043;53.224;6.580;2023-03-31T10:31:17;12.30;;;4.35;;
52029;SDS011;38043;53.224;6.580;2023-03-31T10:33:45;13.82;;;4.43;;
52029;SDS011;38043;53.224;6.580;2023-03-31T10:36:15;14.98;;;3.70;;
52029;SDS011;38043;53.224;6.580;2023-03-31T10:38:47;9.10;;;4.20;;
52029;SDS011;38043;53.224;6.580;2023-03-31T10:41:19;13.88;;;4.50;;
52029;SDS011;38043;53.224;6.580;2023-03-31T10:43:48;10.00;;;3.83;;
52029;SDS011;38043;53.224;6.580;2023-03-31T10:46:15;9.80;;;3.75;;
52029;SDS011;38043;53.224;6.580;2023-03-31T10:48:41;9.93;;;3.65;;
52029;SDS011;38043;53.224;6.580;2023-03-31T11:07:22;9.90;;;4.07;;
52029;SDS011;38043;53.224;6.580;2023-03-31T11:12:43;9.57;;;4.10;;
52029;SDS011;38043;53.224;6.580;2023-03-31T11:26:04;8.45;;;4.13;;
52029;SDS011;38043;53.224;6.580;2023-03-31T11:42:08;15.50;;;4.28;;
52029;SDS011;38043;53.224;6.580;2023-03-31T11:44:44;8.75;;;3.13;;
52029;SDS011;38043;53.224;6.580;2023-03-31T11:47:21;10.10;;;3.45;;
52029;SDS011;38043;53.224;6.580;2023-03-31T11:49:58;9.77;;;3.28;;
52029;SDS011;38043;53.224;6.580;2023-03-31T11:53:12;10.98;;;3.20;;
52029;SDS011;38043;53.224;6.580;2023-03-31T11:55:35;8.25;;;2.75;;
52029;SDS011;38043;53.224;6.580;2023-03-31T11:58:03;9.63;;;3.55;;
52029;SDS011;38043;53.224;6.580;2023-03-31T12:00:35;8.43;;;3.10;;
52029;SDS011;38043;53.224;6.580;2023-03-31T12:05:54;10.82;;;2.78;;
52029;SDS011;38043;53.224;6.580;2023-03-31T12:11:52;10.13;;;2.72;;
52029;SDS011;38043;53.224;6.580;2023-03-31T12:14:26;25.98;;;4.80;;
52029;SDS011;38043;53.224;6.580;2023-03-31T12:17:26;11.07;;;3.13;;
52029;SDS011;38043;53.224;6.580;2023-03-31T12:20:00;7.47;;;2.70;;
52029;SDS011;38043;53.224;6.580;2023-03-31T12:22:43;10.50;;;3.00;;
52029;SDS011;38043;53.224;6.580;2023-03-31T12:25:13;10.82;;;3.13;;
52029;SDS011;38043;53.224;6.580;2023-03-31T12:27:40;19.98;;;3.95;;
52029;SDS011;38043;53.224;6.580;2023-03-31T12:32:40;15.27;;;3.97;;
52029;SDS011;38043;53.224;6.580;2023-03-31T12:35:22;22.98;;;5.25;;
52029;SDS011;38043;53.224;6.580;2023-03-31T12:43:20;11.93;;;4.00;;
52029;SDS011;38043;53.224;6.580;2023-03-31T12:46:43;13.57;;;4.32;;
52029;SDS011;38043;53.224;6.580;2023-03-31T12:48:51;15.52;;;4.13;;
52029;SDS011;38043;53.224;6.580;2023-03-31T12:51:36;15.70;;;3.80;;
52029;SDS011;38043;53.224;6.580;2023-03-31T13:04:39;13.90;;;4.00;;
52029;SDS011;38043;53.224;6.580;2023-03-31T13:09:50;11.18;;;3.85;;
52029;SDS011;38043;53.224;6.580;2023-03-31T13:12:21;13.50;;;4.32;;
52029;SDS011;38043;53.224;6.580;2023-03-31T13:14:50;10.07;;;3.05;;
52029;SDS011;38043;53.224;6.580;2023-03-31T13:17:20;14.00;;;4.47;;
52029;SDS011;38043;53.224;6.580;2023-03-31T13:19:51;15.35;;;4.55;;
52029;SDS011;38043;53.224;6.580;2023-03-31T13:22:28;14.20;;;4.50;;
52029;SDS011;38043;53.224;6.580;2023-03-31T13:27:58;8.90;;;3.75;;
52029;SDS011;38043;53.224;6.580;2023-03-31T13:33:22;8.55;;;2.97;;
52029;SDS011;38043;53.224;6.580;2023-03-31T13:36:16;11.68;;;3.00;;
52029;SDS011;38043;53.224;6.580;2023-03-31T13:39:04;8.57;;;3.10;;
52029;SDS011;38043;53.224;6.580;2023-03-31T13:41:55;8.70;;;2.90;;
52029;SDS011;38043;53.224;6.580;2023-03-31T13:52:18;18.40;;;4.43;;
52029;SDS011;38043;53.224;6.580;2023-03-31T13:58:06;10.52;;;3.33;;
52029;SDS011;38043;53.224;6.580;2023-03-31T14:08:56;9.30;;;2.80;;
52029;SDS011;38043;53.224;6.580;2023-03-31T14:11:35;7.53;;;2.30;;
52029;SDS011;38043;53.224;6.580;2023-03-31T14:14:06;7.03;;;3.00;;
52029;SDS011;38043;53.224;6.580;2023-03-31T14:16:36;12.02;;;2.95;;
52029;SDS011;38043;53.224;6.580;2023-03-31T14:19:08;13.52;;;3.38;;
52029;SDS011;38043;53.224;6.580;2023-03-31T14:30:21;10.45;;;2.42;;
52029;SDS011;38043;53.224;6.580;2023-03-31T14:33:03;9.85;;;2.33;;
52029;SDS011;38043;53.224;6.580;2023-03-31T14:38:26;5.30;;;2.08;;
52029;SDS011;38043;53.224;6.580;2023-03-31T14:40:53;6.55;;;2.15;;
52029;SDS011;38043;53.224;6.580;2023-03-31T14:43:22;8.07;;;2.10;;
52029;SDS011;38043;53.224;6.580;2023-03-31T14:48:28;10.25;;;2.35;;
52029;SDS011;38043;53.224;6.580;2023-03-31T14:50:57;7.70;;;2.72;;
52029;SDS011;38043;53.224;6.580;2023-03-31T14:53:25;6.10;;;1.75;;
52029;SDS011;38043;53.224;6.580;2023-03-31T14:56:02;6.00;;;1.80;;
52029;SDS011;38043;53.224;6.580;2023-03-31T14:58:39;7.95;;;1.95;;
52029;SDS011;38043;53.224;6.580;2023-03-31T15:01:08;6.38;;;2.15;;
52029;SDS011;38043;53.224;6.580;2023-03-31T15:03:39;6.22;;;2.05;;
52029;SDS011;38043;53.224;6.580;2023-03-31T15:06:05;11.35;;;2.50;;
52029;SDS011;38043;53.224;6.580;2023-03-31T15:08:32;6.65;;;2.08;;
52029;SDS011;38043;53.224;6.580;2023-03-31T15:11:02;4.22;;;1.67;;
52029;SDS011;38043;53.224;6.580;2023-03-31T15:13:33;5.78;;;2.03;;
52029;SDS011;38043;53.224;6.580;2023-03-31T15:22:07;8.50;;;2.10;;
52029;SDS011;38043;53.224;6.580;2023-03-31T15:24:38;7.35;;;1.80;;
52029;SDS011;38043;53.224;6.580;2023-03-31T15:27:08;6.18;;;1.30;;
52029;SDS011;38043;53.224;6.580;2023-03-31T15:29:48;9.00;;;1.80;;
52029;SDS011;38043;53.224;6.580;2023-03-31T15:32:18;3.15;;;1.23;;
52029;SDS011;38043;53.224;6.580;2023-03-31T15:34:51;5.65;;;1.48;;
52029;SDS011;38043;53.224;6.580;2023-03-31T15:37:22;3.58;;;1.42;;
52029;SDS011;38043;53.224;6.580;2023-03-31T15:39:56;4.93;;;1.60;;
52029;SDS011;38043;53.224;6.580;2023-03-31T15:42:24;12.95;;;2.65;;
52029;SDS011;38043;53.224;6.580;2023-03-31T15:47:54;8.43;;;1.80;;
52029;SDS011;38043;53.224;6.580;2023-03-31T15:50:21;7.68;;;1.98;;
52029;SDS011;38043;53.224;6.580;2023-03-31T15:52:49;7.13;;;1.77;;
52029;SDS011;38043;53.224;6.580;2023-03-31T15:57:47;10.40;;;2.72;;
52029;SDS011;38043;53.224;6.580;2023-03-31T16:03:23;8.27;;;1.95;;
52029;SDS011;38043;53.224;6.580;2023-03-31T16:05:57;7.85;;;2.35;;
52029;SDS011;38043;53.224;6.580;2023-03-31T16:08:35;5.72;;;2.17;;
52029;SDS011;38043;53.224;6.580;2023-03-31T16:11:04;6.30;;;2.03;;
52029;SDS011;38043;53.224;6.580;2023-03-31T16:13:36;7.15;;;2.00;;
52029;SDS011;38043;53.224;6.580;2023-03-31T16:16:09;10.27;;;2.25;;
52029;SDS011;38043;53.224;6.580;2023-03-31T16:18:39;6.85;;;1.98;;
52029;SDS011;38043;53.224;6.580;2023-03-31T16:21:09;7.40;;;1.95;;
52029;SDS011;38043;53.224;6.580;2023-03-31T16:23:37;7.53;;;2.10;;
52029;SDS011;38043;53.224;6.580;2023-03-31T16:26:05;7.30;;;2.22;;
52029;SDS011;38043;53.224;6.580;2023-03-31T16:28:33;10.80;;;2.17;;
52029;SDS011;38043;53.224;6.580;2023-03-31T16:31:00;8.07;;;2.20;;
52029;SDS011;38043;53.224;6.580;2023-03-31T16:33:28;8.43;;;2.92;;
52029;SDS011;38043;53.224;6.580;2023-03-31T16:35:55;7.70;;;2.60;;
52029;SDS011;38043;53.224;6.580;2023-03-31T16:38:23;9.25;;;2.80;;
52029;SDS011;38043;53.224;6.580;2023-03-31T16:40:53;7.07;;;2.33;;
52029;SDS011;38043;53.224;6.580;2023-03-31T16:45:48;12.02;;;2.88;;
52029;SDS011;38043;53.224;6.580;2023-03-31T16:48:16;9.68;;;3.05;;
52029;SDS011;38043;53.224;6.580;2023-03-31T16:50:46;10.43;;;3.67;;
52029;SDS011;38043;53.224;6.580;2023-03-31T16:53:13;14.05;;;3.83;;
52029;SDS011;38043;53.224;6.580;2023-03-31T16:55:40;14.07;;;3.40;;
52029;SDS011;38043;53.224;6.580;2023-03-31T16:58:07;14.43;;;2.95;;
52029;SDS011;38043;53.224;6.580;2023-03-31T17:00:34;12.65;;;2.97;;
52029;SDS011;38043;53.224;6.580;2023-03-31T17:03:01;9.90;;;2.73;;
52029;SDS011;38043;53.224;6.580;2023-03-31T17:05:27;11.45;;;3.28;;
52029;SDS011;38043;53.224;6.580;2023-03-31T17:07:56;19.83;;;3.70;;
52029;SDS011;38043;53.224;6.580;2023-03-31T17:10:22;10.27;;;3.13;;
52029;SDS011;38043;53.224;6.580;2023-03-31T17:12:49;11.45;;;3.05;;
52029;SDS011;38043;53.224;6.580;2023-03-31T17:15:14;11.85;;;3.22;;
52029;SDS011;38043;53.224;6.580;2023-03-31T17:17:40;13.00;;;3.38;;
52029;SDS011;38043;53.224;6.580;2023-03-31T17:20:06;17.63;;;4.55;;
52029;SDS011;38043;53.224;6.580;2023-03-31T17:22:33;15.88;;;3.28;;
52029;SDS011;38043;53.224;6.580;2023-03-31T17:24:58;13.75;;;3.80;;
52029;SDS011;38043;53.224;6.580;2023-03-31T17:27:25;11.07;;;2.88;;
52029;SDS011;38043;53.224;6.580;2023-03-31T17:29:52;11.80;;;4.13;;
52029;SDS011;38043;53.224;6.580;2023-03-31T17:32:17;12.05;;;3.28;;
52029;SDS011;38043;53.224;6.580;2023-03-31T17:34:43;10.85;;;3.00;;
52029;SDS011;38043;53.224;6.580;2023-03-31T17:37:12;13.55;;;3.45;;
52029;SDS011;38043;53.224;6.580;2023-03-31T17:39:38;12.85;;;4.13;;
52029;SDS011;38043;53.224;6.580;2023-03-31T17:42:03;15.20;;;3.40;;
52029;SDS011;38043;53.224;6.580;2023-03-31T17:44:29;9.75;;;2.70;;
52029;SDS011;38043;53.224;6.580;2023-03-31T17:46:55;10.65;;;3.47;;
52029;SDS011;38043;53.224;6.580;2023-03-31T17:49:21;13.40;;;3.28;;
52029;SDS011;38043;53.224;6.580;2023-03-31T17:51:47;15.60;;;3.35;;
52029;SDS011;38043;53.224;6.580;2023-03-31T17:54:13;9.77;;;4.05;;
52029;SDS011;38043;53.224;6.580;2023-03-31T17:56:39;14.52;;;5.57;;
52029;SDS011;38043;53.224;6.580;2023-03-31T17:59:06;16.02;;;5.25;;
52029;SDS011;38043;53.224;6.580;2023-03-31T18:01:31;19.08;;;5.57;;
52029;SDS011;38043;53.224;6.580;2023-03-31T18:03:58;24.58;;;7.38;;
52029;SDS011;38043;53.224;6.580;2023-03-31T18:06:23;27.25;;;8.45;;
52029;SDS011;38043;53.224;6.580;2023-03-31T18:08:49;17.45;;;5.22;;
52029;SDS011;38043;53.224;6.580;2023-03-31T18:11:15;19.10;;;5.53;;
52029;SDS011;38043;53.224;6.580;2023-03-31T18:13:41;15.40;;;4.68;;